Time;durP1;ratioP1;P1;durP2;ratioP2;P2;SDS_P1;SDS_P2;PMS_P1;PMS_P2;Temp;Humidity;BMP_temperature;BMP_pressure;BME280_temperature;BME280_humidity;BME280_pressure;Samples;Min_cycle;Max_cycle;Signal;HPM_P1;HPM_P2
2024/01/25 00:01:12;;;;;;;37.97;8.05;;;;;;;;;;5101934;28;20262;-76
2024/01/25 00:03:38;;;;;;;34.92;7.78;;;;;;;;;;5109488;28;20056;-76
2024/01/25 00:06:04;;;;;;;35.30;6.55;;;;;;;;;;5103049;28;20020;-76
2024/01/25 00:08:29;;;;;;;37.53;7.88;;;;;;;;;;5107287;28;20018;-76
2024/01/25 00:10:54;;;;;;;35.70;7.00;;;;;;;;;;5103439;28;20368;-76
2024/01/25 00:13:19;;;;;;;31.53;7.33;;;;;;;;;;5106416;28;20020;-76
2024/01/25 00:15:45;;;;;;;36.03;5.80;;;;;;;;;;5105132;28;20281;-76
2024/01/25 00:18:10;;;;;;;38.88;6.30;;;;;;;;;;5104148;28;20714;-76
2024/01/25 00:20:35;;;;;;;36.97;7.57;;;;;;;;;;5105734;28;20414;-76
2024/01/25 00:23:00;;;;;;;38.75;7.20;;;;;;;;;;5102729;28;20024;-76
2024/01/25 00:25:26;;;;;;;42.67;7.27;;;;;;;;;;5105579;28;20027;-76
2024/01/25 00:27:52;;;;;;;30.10;6.50;;;;;;;;;;5105002;28;20374;-76
2024/01/25 00:30:17;;;;;;;43.00;8.60;;;;;;;;;;5104052;28;20034;-76
2024/01/25 00:32:43;;;;;;;28.85;6.68;;;;;;;;;;5105490;28;20106;-76
2024/01/25 00:35:10;;;;;;;42.10;7.07;;;;;;;;;;5104407;28;20012;-76
2024/01/25 00:37:35;;;;;;;38.30;7.82;;;;;;;;;;5104623;28;20797;-76
2024/01/25 00:40:01;;;;;;;42.03;8.63;;;;;;;;;;5105226;28;20106;-76
2024/01/25 00:42:26;;;;;;;41.17;7.38;;;;;;;;;;5102746;28;20091;-75
2024/01/25 00:44:52;;;;;;;38.75;7.13;;;;;;;;;;5104279;28;20027;-76
2024/01/25 00:47:18;;;;;;;47.88;8.35;;;;;;;;;;5102871;28;20023;-76
2024/01/25 00:49:43;;;;;;;42.08;7.70;;;;;;;;;;5103985;27;20023;-76
2024/01/25 00:52:09;;;;;;;46.38;8.13;;;;;;;;;;5104478;28;20027;-76
2024/01/25 00:54:34;;;;;;;43.35;7.70;;;;;;;;;;5102079;28;20111;-76
2024/01/25 00:56:59;;;;;;;36.88;6.65;;;;;;;;;;5104216;28;20379;-76
2024/01/25 00:59:25;;;;;;;36.63;7.47;;;;;;;;;;5103183;28;20416;-76
2024/01/25 01:01:52;;;;;;;41.28;7.18;;;;;;;;;;5104062;28;20024;-76
2024/01/25 01:04:17;;;;;;;39.17;7.28;;;;;;;;;;5104454;28;20441;-76
2024/01/25 01:06:43;;;;;;;36.70;7.32;;;;;;;;;;5102551;28;20122;-75
2024/01/25 01:09:08;;;;;;;41.05;7.63;;;;;;;;;;5107054;28;20020;-76
2024/01/25 01:11:34;;;;;;;43.78;7.50;;;;;;;;;;5101031;28;20034;-76
2024/01/25 01:13:59;;;;;;;40.42;8.32;;;;;;;;;;5107990;28;20023;-76
2024/01/25 01:16:24;;;;;;;35.65;6.82;;;;;;;;;;5101447;28;20028;-76
2024/01/25 01:18:50;;;;;;;44.83;7.53;;;;;;;;;;5107196;28;20066;-76
2024/01/25 01:21:15;;;;;;;47.05;7.25;;;;;;;;;;5101989;28;20274;-75
2024/01/25 01:23:40;;;;;;;36.57;7.10;;;;;;;;;;5106634;28;20012;-75
2024/01/25 01:26:05;;;;;;;42.85;8.07;;;;;;;;;;5101041;28;20327;-75
2024/01/25 01:28:31;;;;;;;34.10;7.30;;;;;;;;;;5104308;28;20467;-75
2024/01/25 01:30:56;;;;;;;34.22;6.93;;;;;;;;;;5099551;28;20386;-76
2024/01/25 01:33:21;;;;;;;40.17;7.33;;;;;;;;;;5102982;28;20386;-75
2024/01/25 01:35:46;;;;;;;46.40;8.10;;;;;;;;;;5104427;28;20365;-76
2024/01/25 01:38:11;;;;;;;37.87;8.07;;;;;;;;;;5101773;28;20020;-76
2024/01/25 01:40:37;;;;;;;39.80;7.53;;;;;;;;;;5105966;28;20455;-75
2024/01/25 01:43:02;;;;;;;38.05;7.90;;;;;;;;;;5101087;28;20353;-76
2024/01/25 01:45:28;;;;;;;39.97;7.43;;;;;;;;;;5109971;28;20363;-75
2024/01/25 01:47:54;;;;;;;44.83;7.32;;;;;;;;;;5099522;28;20471;-75
2024/01/25 01:50:19;;;;;;;41.20;7.50;;;;;;;;;;5107205;28;20531;-75
2024/01/25 01:52:45;;;;;;;46.10;7.72;;;;;;;;;;5101042;28;20111;-75
2024/01/25 01:55:10;;;;;;;39.75;7.28;;;;;;;;;;5104875;28;20038;-75
2024/01/25 01:57:36;;;;;;;38.85;7.53;;;;;;;;;;5102905;28;20011;-75
2024/01/25 02:00:04;;;;;;;40.42;6.50;;;;;;;;;;5102879;28;20043;-75
2024/01/25 02:02:29;;;;;;;43.97;7.43;;;;;;;;;;5104357;28;20103;-75
2024/01/25 02:04:54;;;;;;;38.42;7.30;;;;;;;;;;5103644;28;20070;-75
2024/01/25 02:07:19;;;;;;;50.57;8.03;;;;;;;;;;5111550;28;20037;-76
2024/01/25 02:09:45;;;;;;;47.97;7.27;;;;;;;;;;5106963;28;20356;-75
2024/01/25 02:12:10;;;;;;;51.40;7.97;;;;;;;;;;5108209;28;20286;-75
2024/01/25 02:14:35;;;;;;;41.25;7.10;;;;;;;;;;5107811;28;20019;-75
2024/01/25 02:17:00;;;;;;;54.63;8.43;;;;;;;;;;5107303;28;20031;-75
2024/01/25 02:19:25;;;;;;;38.90;7.97;;;;;;;;;;5108413;28;20261;-75
2024/01/25 02:21:53;;;;;;;34.53;7.57;;;;;;;;;;5107211;28;20796;-75
2024/01/25 02:24:18;;;;;;;42.65;7.50;;;;;;;;;;5102359;28;20360;-75
2024/01/25 02:26:44;;;;;;;41.63;6.70;;;;;;;;;;5109015;28;20127;-76
2024/01/25 02:29:09;;;;;;;48.15;7.43;;;;;;;;;;5105355;28;20274;-75
2024/01/25 02:31:34;;;;;;;42.72;7.22;;;;;;;;;;5108357;28;20039;-75
2024/01/25 02:34:00;;;;;;;44.13;7.90;;;;;;;;;;5106303;28;20020;-75
2024/01/25 02:36:25;;;;;;;42.97;7.50;;;;;;;;;;5106497;28;20763;-75
2024/01/25 02:38:50;;;;;;;40.78;6.93;;;;;;;;;;5108145;28;20273;-75
2024/01/25 02:41:15;;;;;;;40.50;8.47;;;;;;;;;;5105135;28;20076;-75
2024/01/25 02:43:40;;;;;;;34.65;6.68;;;;;;;;;;5110408;28;20308;-75
2024/01/25 02:46:06;;;;;;;33.72;6.07;;;;;;;;;;5104059;28;20097;-75
2024/01/25 02:48:32;;;;;;;37.83;7.25;;;;;;;;;;5111374;28;20043;-75
2024/01/25 02:50:57;;;;;;;35.63;6.82;;;;;;;;;;5103301;28;20056;-75
2024/01/25 02:53:22;;;;;;;37.63;6.80;;;;;;;;;;5111158;28;20012;-75
2024/01/25 02:55:47;;;;;;;32.63;6.97;;;;;;;;;;5103914;28;20633;-75
2024/01/25 02:58:12;;;;;;;40.65;7.03;;;;;;;;;;5108256;28;20253;-75
2024/01/25 03:00:38;;;;;;;45.22;8.40;;;;;;;;;;5106856;28;20022;-75
2024/01/25 03:03:03;;;;;;;48.88;6.72;;;;;;;;;;5106794;28;20019;-75
2024/01/25 03:05:28;;;;;;;45.78;8.40;;;;;;;;;;5106612;28;20016;-75
2024/01/25 03:07:53;;;;;;;36.30;7.17;;;;;;;;;;5105878;28;20059;-75
2024/01/25 03:10:19;;;;;;;46.65;7.35;;;;;;;;;;5106519;28;20285;-75
2024/01/25 03:12:45;;;;;;;56.10;7.85;;;;;;;;;;5105550;28;20038;-76
2024/01/25 03:15:10;;;;;;;43.47;7.57;;;;;;;;;;5107066;28;20011;-75
2024/01/25 03:17:36;;;;;;;39.67;7.03;;;;;;;;;;5105531;28;20027;-75
2024/01/25 03:20:01;;;;;;;53.97;8.20;;;;;;;;;;5106070;28;20023;-75
2024/01/25 03:22:26;;;;;;;41.07;6.73;;;;;;;;;;5106841;28;20615;-75
2024/01/25 03:24:51;;;;;;;46.55;7.45;;;;;;;;;;5106064;28;20357;-75
2024/01/25 03:27:16;;;;;;;46.80;7.53;;;;;;;;;;5106609;28;20045;-75
2024/01/25 03:29:43;;;;;;;40.28;6.68;;;;;;;;;;5108784;28;20281;-75
2024/01/25 03:32:08;;;;;;;49.88;7.03;;;;;;;;;;5101961;28;20036;-75
2024/01/25 03:34:33;;;;;;;45.70;8.27;;;;;;;;;;5106875;28;20041;-75
2024/01/25 03:36:58;;;;;;;34.83;6.67;;;;;;;;;;5105708;28;20052;-75
2024/01/25 03:39:23;;;;;;;36.07;6.37;;;;;;;;;;5104610;28;20284;-75
2024/01/25 03:41:49;;;;;;;26.13;6.47;;;;;;;;;;5106202;28;20304;-75
2024/01/25 03:44:14;;;;;;;40.07;6.37;;;;;;;;;;5104924;28;20281;-75
2024/01/25 03:46:39;;;;;;;39.00;7.47;;;;;;;;;;5105608;28;20302;-75
2024/01/25 03:49:04;;;;;;;46.88;7.22;;;;;;;;;;5106637;28;20280;-75
2024/01/25 03:51:29;;;;;;;36.42;7.30;;;;;;;;;;5104183;28;20032;-75
2024/01/25 03:53:57;;;;;;;43.45;7.38;;;;;;;;;;5112252;28;20022;-75
2024/01/25 03:56:23;;;;;;;30.15;6.10;;;;;;;;;;5106719;28;20027;-75
2024/01/25 03:58:48;;;;;;;26.27;5.50;;;;;;;;;;5103566;28;20047;-75
2024/01/25 04:01:13;;;;;;;34.73;5.77;;;;;;;;;;5105560;28;20767;-75
2024/01/25 04:03:38;;;;;;;35.77;6.57;;;;;;;;;;5103862;28;20357;-75
2024/01/25 04:06:04;;;;;;;34.92;6.75;;;;;;;;;;5107933;28;20270;-75
2024/01/25 04:08:29;;;;;;;34.20;5.80;;;;;;;;;;5102548;28;20038;-75
2024/01/25 04:10:54;;;;;;;35.67;5.27;;;;;;;;;;5104935;28;20076;-75
2024/01/25 04:13:19;;;;;;;31.23;5.87;;;;;;;;;;5102914;28;20776;-75
2024/01/25 04:15:45;;;;;;;33.43;6.63;;;;;;;;;;5105448;28;20277;-75
2024/01/25 04:18:10;;;;;;;27.65;5.80;;;;;;;;;;5103662;28;20489;-75
2024/01/25 04:20:35;;;;;;;26.25;6.05;;;;;;;;;;5107282;28;20469;-75
2024/01/25 04:23:00;;;;;;;23.70;5.90;;;;;;;;;;5102370;28;20524;-75
2024/01/25 04:25:25;;;;;;;26.23;5.57;;;;;;;;;;5109550;28;20019;-75
2024/01/25 04:27:51;;;;;;;27.33;5.80;;;;;;;;;;5096135;28;20266;-75
2024/01/25 04:30:16;;;;;;;31.20;5.67;;;;;;;;;;5103013;28;20040;-75
2024/01/25 04:32:41;;;;;;;31.35;5.93;;;;;;;;;;5102093;28;20301;-75
2024/01/25 04:35:08;;;;;;;34.80;6.95;;;;;;;;;;5108127;28;20051;-75
2024/01/25 04:37:33;;;;;;;27.42;5.18;;;;;;;;;;5102160;28;20016;-75
2024/01/25 04:39:59;;;;;;;35.42;5.47;;;;;;;;;;5109066;28;20474;-75
2024/01/25 04:42:24;;;;;;;34.60;6.37;;;;;;;;;;5101471;28;20020;-75
2024/01/25 04:44:49;;;;;;;31.97;6.70;;;;;;;;;;5108261;28;20304;-75
2024/01/25 04:47:14;;;;;;;30.93;6.23;;;;;;;;;;5102621;28;20314;-75
2024/01/25 04:49:40;;;;;;;31.70;6.25;;;;;;;;;;5106082;28;20297;-75
2024/01/25 04:52:05;;;;;;;29.17;5.85;;;;;;;;;;5104167;28;20395;-75
2024/01/25 04:54:30;;;;;;;37.30;7.13;;;;;;;;;;5104414;28;20352;-75
2024/01/25 04:56:56;;;;;;;43.00;6.83;;;;;;;;;;5104325;28;20028;-75
2024/01/25 04:59:21;;;;;;;31.83;6.40;;;;;;;;;;5103833;28;20282;-75
2024/01/25 05:01:46;;;;;;;36.63;6.57;;;;;;;;;;5104828;28;20293;-75
2024/01/25 05:04:11;;;;;;;30.83;6.07;;;;;;;;;;5103373;28;20496;-75
2024/01/25 05:06:36;;;;;;;34.10;5.80;;;;;;;;;;5108434;28;20280;-75
2024/01/25 05:09:02;;;;;;;33.00;6.68;;;;;;;;;;5106982;28;20262;-75
2024/01/25 05:11:27;;;;;;;32.05;6.65;;;;;;;;;;5103102;28;20588;-75
2024/01/25 05:13:52;;;;;;;24.20;5.75;;;;;;;;;;5104847;28;20102;-75
2024/01/25 05:16:17;;;;;;;26.83;5.70;;;;;;;;;;5104947;28;20016;-75
2024/01/25 05:18:42;;;;;;;31.43;7.37;;;;;;;;;;5102527;28;20277;-75
2024/01/25 05:21:08;;;;;;;25.05;5.32;;;;;;;;;;5107441;28;20262;-75
2024/01/25 05:23:33;;;;;;;31.45;5.95;;;;;;;;;;5101634;28;20493;-75
2024/01/25 05:25:58;;;;;;;34.53;6.20;;;;;;;;;;5108911;28;20016;-75
2024/01/25 05:28:24;;;;;;;28.13;6.00;;;;;;;;;;5101069;28;20269;-75
2024/01/25 05:30:49;;;;;;;37.67;5.82;;;;;;;;;;5106037;28;20035;-75
2024/01/25 05:33:15;;;;;;;33.25;5.65;;;;;;;;;;5104048;28;20063;-75
2024/01/25 05:35:40;;;;;;;29.05;5.95;;;;;;;;;;5103272;28;20463;-75
2024/01/25 05:38:05;;;;;;;27.33;6.00;;;;;;;;;;5102915;28;20020;-75
2024/01/25 05:40:30;;;;;;;36.00;6.72;;;;;;;;;;5105381;28;20750;-75
2024/01/25 05:42:55;;;;;;;38.83;7.37;;;;;;;;;;5101483;28;20419;-75
2024/01/25 05:45:21;;;;;;;49.47;8.13;;;;;;;;;;5106990;28;20270;-75
2024/01/25 05:47:50;;;;;;;47.75;8.02;;;;;;;;;;5100695;28;20124;-75
2024/01/25 05:50:15;;;;;;;39.95;7.30;;;;;;;;;;5108299;28;20031;-75
2024/01/25 05:52:40;;;;;;;40.78;7.97;;;;;;;;;;5099999;28;20365;-75
2024/01/25 05:55:05;;;;;;;41.63;8.00;;;;;;;;;;5108396;28;20047;-74
2024/01/25 05:57:31;;;;;;;32.55;7.38;;;;;;;;;;5100735;28;20272;-75
2024/01/25 05:59:56;;;;;;;48.75;9.13;;;;;;;;;;5105836;28;20047;-75
2024/01/25 06:02:21;;;;;;;35.77;7.97;;;;;;;;;;5102663;28;20027;-75
2024/01/25 06:04:46;;;;;;;54.50;8.10;;;;;;;;;;5104877;28;20361;-75
2024/01/25 06:07:12;;;;;;;43.53;8.73;;;;;;;;;;5105406;28;20024;-75
2024/01/25 06:09:37;;;;;;;34.87;7.17;;;;;;;;;;5105756;28;20019;-75
2024/01/25 06:12:04;;;;;;;41.08;7.25;;;;;;;;;;5103912;28;20641;-75
2024/01/25 06:14:29;;;;;;;39.67;7.93;;;;;;;;;;5102817;28;20069;-75
2024/01/25 06:16:54;;;;;;;41.17;8.40;;;;;;;;;;5103932;28;20454;-75
2024/01/25 06:19:19;;;;;;;38.70;7.17;;;;;;;;;;5103954;28;20268;-75
2024/01/25 06:21:45;;;;;;;33.73;7.53;;;;;;;;;;5102355;28;20750;-75
2024/01/25 06:24:10;;;;;;;30.13;6.67;;;;;;;;;;5104156;28;20261;-75
2024/01/25 06:26:35;;;;;;;28.90;6.53;;;;;;;;;;5103701;28;20622;-75
2024/01/25 06:29:00;;;;;;;30.87;6.83;;;;;;;;;;5103216;28;20362;-75
2024/01/25 06:31:25;;;;;;;30.57;7.00;;;;;;;;;;5103848;28;20293;-75
2024/01/25 06:33:52;;;;;;;31.67;6.90;;;;;;;;;;5102008;28;20280;-75
2024/01/25 06:36:17;;;;;;;28.38;6.85;;;;;;;;;;5103117;28;20015;-75
2024/01/25 06:38:42;;;;;;;24.17;7.00;;;;;;;;;;5102789;28;20379;-75
2024/01/25 06:41:08;;;;;;;32.87;7.73;;;;;;;;;;5103589;28;20278;-75
2024/01/25 06:43:33;;;;;;;25.80;5.85;;;;;;;;;;5103359;28;20285;-75
2024/01/25 06:45:58;;;;;;;32.00;7.28;;;;;;;;;;5101870;28;20052;-75
2024/01/25 06:48:24;;;;;;;34.80;8.17;;;;;;;;;;5102862;28;20055;-74
2024/01/25 06:50:50;;;;;;;44.77;9.53;;;;;;;;;;5103134;28;20302;-74
2024/01/25 06:53:16;;;;;;;32.40;6.70;;;;;;;;;;5105511;28;20665;-74
2024/01/25 06:55:41;;;;;;;25.90;6.30;;;;;;;;;;5108790;28;20107;-75
2024/01/25 06:58:06;;;;;;;37.75;7.47;;;;;;;;;;5104250;28;20126;-75
2024/01/25 07:00:31;;;;;;;35.13;7.90;;;;;;;;;;5111845;28;20479;-75
2024/01/25 07:02:56;;;;;;;22.75;6.70;;;;;;;;;;5103035;28;20319;-75
2024/01/25 07:05:22;;;;;;;34.40;9.07;;;;;;;;;;5111598;28;20459;-75
2024/01/25 07:07:47;;;;;;;29.87;7.87;;;;;;;;;;5107656;28;20030;-75
2024/01/25 07:10:12;;;;;;;41.07;8.87;;;;;;;;;;5110281;28;20258;-75
2024/01/25 07:12:37;;;;;;;30.25;8.10;;;;;;;;;;5104511;28;20286;-75
2024/01/25 07:15:02;;;;;;;38.43;8.30;;;;;;;;;;5109080;28;20019;-75
2024/01/25 07:17:28;;;;;;;28.52;8.35;;;;;;;;;;5106103;28;20655;-75
2024/01/25 07:19:53;;;;;;;29.33;7.18;;;;;;;;;;5107055;28;20065;-75
2024/01/25 07:22:18;;;;;;;32.90;8.17;;;;;;;;;;5106999;28;20016;-75
2024/01/25 07:24:43;;;;;;;32.85;7.95;;;;;;;;;;5105751;28;20368;-75
2024/01/25 07:27:10;;;;;;;34.65;8.35;;;;;;;;;;5107174;28;20016;-75
2024/01/25 07:29:35;;;;;;;33.80;8.50;;;;;;;;;;5107051;28;20047;-75
2024/01/25 07:32:00;;;;;;;40.20;8.68;;;;;;;;;;5102570;28;20078;-75
2024/01/25 07:34:25;;;;;;;46.20;9.43;;;;;;;;;;5108168;28;20019;-75
2024/01/25 07:36:51;;;;;;;40.88;9.27;;;;;;;;;;5105500;28;20316;-75
2024/01/25 07:39:16;;;;;;;33.33;8.95;;;;;;;;;;5105693;28;20016;-75
2024/01/25 07:41:41;;;;;;;33.73;8.57;;;;;;;;;;5106295;28;20050;-75
2024/01/25 07:44:06;;;;;;;34.58;9.18;;;;;;;;;;5104937;28;20269;-75
2024/01/25 07:46:31;;;;;;;38.88;9.70;;;;;;;;;;5106153;28;20110;-75
2024/01/25 07:48:56;;;;;;;44.47;10.60;;;;;;;;;;5105349;28;20023;-75
2024/01/25 07:51:22;;;;;;;36.33;9.03;;;;;;;;;;5106585;28;20489;-75
2024/01/25 07:53:47;;;;;;;43.67;9.93;;;;;;;;;;5105780;28;20353;-75
2024/01/25 07:56:12;;;;;;;37.65;10.50;;;;;;;;;;5105212;28;20096;-75
2024/01/25 07:58:37;;;;;;;46.40;10.93;;;;;;;;;;5105453;28;20081;-75
2024/01/25 08:01:06;;;;;;;36.15;11.18;;;;;;;;;;5106061;28;20270;-75
2024/01/25 08:03:31;;;;;;;40.08;11.18;;;;;;;;;;5105345;28;20070;-75
2024/01/25 08:05:56;;;;;;;36.67;10.55;;;;;;;;;;5107028;28;20143;-75
2024/01/25 08:08:21;;;;;;;53.13;11.83;;;;;;;;;;5104804;28;20508;-75
2024/01/25 08:10:47;;;;;;;37.83;10.55;;;;;;;;;;5109972;28;20285;-75
2024/01/25 08:13:12;;;;;;;52.13;11.00;;;;;;;;;;5102364;28;20091;-75
2024/01/25 08:15:37;;;;;;;47.25;11.68;;;;;;;;;;5110866;28;20531;-75
2024/01/25 08:18:02;;;;;;;41.70;12.30;;;;;;;;;;5102908;28;20024;-75
2024/01/25 08:20:28;;;;;;;47.78;12.88;;;;;;;;;;5096302;28;20072;-75
2024/01/25 08:22:53;;;;;;;45.77;12.17;;;;;;;;;;5110457;28;20016;-75
2024/01/25 08:25:20;;;;;;;40.60;11.60;;;;;;;;;;5104037;28;20285;-75
2024/01/25 08:27:45;;;;;;;53.60;12.95;;;;;;;;;;5102980;28;20656;-75
2024/01/25 08:30:10;;;;;;;48.80;14.02;;;;;;;;;;5108368;28;20042;-75
2024/01/25 08:32:35;;;;;;;55.55;14.63;;;;;;;;;;5102470;28;20023;-75
2024/01/25 08:35:01;;;;;;;51.30;13.83;;;;;;;;;;5108363;28;20623;-75
2024/01/25 08:37:26;;;;;;;49.43;15.20;;;;;;;;;;5102402;28;20297;-75
2024/01/25 08:39:51;;;;;;;46.60;15.33;;;;;;;;;;5109951;28;20269;-75
2024/01/25 08:42:17;;;;;;;55.40;15.00;;;;;;;;;;5105249;28;20274;-75
2024/01/25 08:44:48;;;;;;;57.88;15.13;;;;;;;;;;5107967;28;20312;-75
2024/01/25 08:47:13;;;;;;;53.35;16.02;;;;;;;;;;5102648;28;20047;-75
2024/01/25 08:49:39;;;;;;;60.72;17.88;;;;;;;;;;5106775;28;20451;-75
2024/01/25 08:52:05;;;;;;;48.37;16.83;;;;;;;;;;5104072;28;20506;-75
2024/01/25 08:54:30;;;;;;;50.72;16.38;;;;;;;;;;5105584;28;20345;-75
2024/01/25 08:56:55;;;;;;;52.70;17.27;;;;;;;;;;5104156;28;20119;-75
2024/01/25 08:59:21;;;;;;;48.73;17.13;;;;;;;;;;5103809;28;20294;-75
2024/01/25 09:01:46;;;;;;;53.40;17.43;;;;;;;;;;5105135;28;20266;-75
2024/01/25 09:04:11;;;;;;;58.97;18.53;;;;;;;;;;5103590;28;20710;-75
2024/01/25 09:06:36;;;;;;;49.10;17.30;;;;;;;;;;5105251;28;20265;-75
2024/01/25 09:09:02;;;;;;;57.05;19.02;;;;;;;;;;5106752;28;20257;-75
2024/01/25 09:11:27;;;;;;;53.30;18.73;;;;;;;;;;5104267;28;20032;-75
2024/01/25 09:13:52;;;;;;;51.40;18.30;;;;;;;;;;5104625;28;20072;-75
2024/01/25 09:16:17;;;;;;;50.73;17.97;;;;;;;;;;5106325;28;20265;-75
2024/01/25 09:18:42;;;;;;;44.47;17.93;;;;;;;;;;5104502;28;20353;-75
2024/01/25 09:21:08;;;;;;;48.28;18.38;;;;;;;;;;5104668;28;20262;-75
2024/01/25 09:23:33;;;;;;;56.58;18.02;;;;;;;;;;5101656;28;20031;-75
2024/01/25 09:25:58;;;;;;;46.90;17.50;;;;;;;;;;5104044;28;20019;-75
2024/01/25 09:28:23;;;;;;;44.10;16.13;;;;;;;;;;5103653;28;20019;-75
2024/01/25 09:30:48;;;;;;;42.27;16.63;;;;;;;;;;5106050;28;20769;-75
2024/01/25 09:33:14;;;;;;;45.17;16.47;;;;;;;;;;5104545;28;20287;-75
2024/01/25 09:35:39;;;;;;;40.13;16.77;;;;;;;;;;5103674;28;20664;-75
2024/01/25 09:38:04;;;;;;;47.87;16.47;;;;;;;;;;5103460;28;20020;-75
2024/01/25 09:40:30;;;;;;;36.93;14.77;;;;;;;;;;5105604;28;20737;-75
2024/01/25 09:42:55;;;;;;;37.92;16.33;;;;;;;;;;5101866;28;20266;-75
2024/01/25 09:45:20;;;;;;;37.03;15.65;;;;;;;;;;5107222;28;20020;-75
2024/01/25 09:47:47;;;;;;;39.42;16.08;;;;;;;;;;5100570;28;20361;-75
2024/01/25 09:50:13;;;;;;;36.60;15.65;;;;;;;;;;5108709;28;20023;-75
2024/01/25 09:52:39;;;;;;;35.00;15.10;;;;;;;;;;5100583;28;20020;-75
2024/01/25 09:55:06;;;;;;;44.60;16.42;;;;;;;;;;5108972;28;20016;-75
2024/01/25 09:57:35;;;;;;;41.63;16.88;;;;;;;;;;5094646;28;20383;-75
2024/01/25 10:00:00;;;;;;;49.58;16.85;;;;;;;;;;5107276;28;20039;-75
2024/01/25 10:02:25;;;;;;;45.65;17.55;;;;;;;;;;5101498;28;20476;-75
2024/01/25 10:04:51;;;;;;;47.43;18.70;;;;;;;;;;5106499;28;20110;-75
2024/01/25 10:07:17;;;;;;;47.78;18.70;;;;;;;;;;5103400;28;20269;-75
2024/01/25 10:09:43;;;;;;;47.70;18.65;;;;;;;;;;5106304;28;20012;-75
2024/01/25 10:12:08;;;;;;;48.17;18.30;;;;;;;;;;5104089;28;20118;-75
2024/01/25 10:14:33;;;;;;;50.45;18.50;;;;;;;;;;5103034;28;20064;-75
2024/01/25 10:17:00;;;;;;;45.20;17.57;;;;;;;;;;5101827;28;20041;-75
2024/01/25 10:19:25;;;;;;;51.25;17.95;;;;;;;;;;5103057;28;20043;-75
2024/01/25 10:21:50;;;;;;;46.58;18.05;;;;;;;;;;5103535;28;20080;-75
2024/01/25 10:24:15;;;;;;;52.03;16.90;;;;;;;;;;5104233;28;20107;-75
2024/01/25 10:26:42;;;;;;;50.80;17.33;;;;;;;;;;5102700;28;20308;-75
2024/01/25 10:29:08;;;;;;;47.10;16.90;;;;;;;;;;5108110;28;20254;-75
2024/01/25 10:31:36;;;;;;;52.92;17.50;;;;;;;;;;5107891;28;20035;-75
2024/01/25 10:34:01;;;;;;;52.10;17.67;;;;;;;;;;5105837;28;20012;-75
2024/01/25 10:36:27;;;;;;;45.25;16.88;;;;;;;;;;5108281;28;20446;-75
2024/01/25 10:38:53;;;;;;;42.22;16.10;;;;;;;;;;5106373;28;20016;-75
2024/01/25 10:41:19;;;;;;;47.90;16.85;;;;;;;;;;5107490;28;20024;-75
2024/01/25 10:43:44;;;;;;;44.20;16.98;;;;;;;;;;5107028;28;20044;-75
2024/01/25 10:46:09;;;;;;;50.22;16.33;;;;;;;;;;5107025;28;20055;-75
2024/01/25 10:48:35;;;;;;;44.60;15.18;;;;;;;;;;5107300;28;20106;-75
2024/01/25 10:51:02;;;;;;;45.93;14.43;;;;;;;;;;5106059;28;20385;-75
2024/01/25 10:53:29;;;;;;;39.83;14.57;;;;;;;;;;5107776;28;20510;-75
2024/01/25 10:55:54;;;;;;;43.28;15.23;;;;;;;;;;5106979;28;20028;-75
2024/01/25 10:58:20;;;;;;;42.40;13.77;;;;;;;;;;5106180;28;20027;-75
2024/01/25 11:00:52;;;;;;;36.38;13.65;;;;;;;;;;5109635;28;20321;-75
2024/01/25 11:03:20;;;;;;;47.28;14.35;;;;;;;;;;5105169;28;20467;-76
2024/01/25 11:05:46;;;;;;;44.47;14.20;;;;;;;;;;5110884;28;20024;-75
2024/01/25 11:08:18;;;;;;;43.15;13.45;;;;;;;;;;5106417;28;20391;-75
2024/01/25 11:10:48;;;;;;;38.42;14.77;;;;;;;;;;5103129;28;20086;-75
2024/01/25 11:13:14;;;;;;;48.25;15.15;;;;;;;;;;5103691;28;20050;-75
2024/01/25 11:15:39;;;;;;;44.90;14.18;;;;;;;;;;5111765;28;20119;-75
2024/01/25 11:18:08;;;;;;;45.40;14.85;;;;;;;;;;5103796;28;20099;-75
2024/01/25 11:20:33;;;;;;;51.38;15.25;;;;;;;;;;5104990;28;20020;-76
2024/01/25 11:23:01;;;;;;;47.22;15.90;;;;;;;;;;5107564;28;20123;-75
2024/01/25 11:25:27;;;;;;;53.72;16.10;;;;;;;;;;5103598;28;20020;-75
2024/01/25 11:27:53;;;;;;;43.15;16.52;;;;;;;;;;5109288;28;20032;-75
2024/01/25 11:30:21;;;;;;;47.70;17.25;;;;;;;;;;5102957;28;20023;-75
2024/01/25 11:32:47;;;;;;;48.42;17.35;;;;;;;;;;5104690;28;20035;-75
2024/01/25 11:35:16;;;;;;;58.05;19.38;;;;;;;;;;5109723;28;20020;-75
2024/01/25 11:37:41;;;;;;;46.33;17.48;;;;;;;;;;5101859;28;20028;-75
2024/01/25 11:40:07;;;;;;;47.95;18.67;;;;;;;;;;5111230;28;20395;-75
2024/01/25 11:42:32;;;;;;;44.20;17.20;;;;;;;;;;5103096;28;20023;-75
2024/01/25 11:44:58;;;;;;;43.08;16.88;;;;;;;;;;5110214;28;20462;-75
2024/01/25 11:47:23;;;;;;;53.38;19.33;;;;;;;;;;5103099;28;20020;-75
2024/01/25 11:49:48;;;;;;;49.95;19.40;;;;;;;;;;5110056;28;20023;-75
2024/01/25 11:52:14;;;;;;;39.00;15.83;;;;;;;;;;5103227;28;20043;-75
2024/01/25 11:54:40;;;;;;;37.88;15.93;;;;;;;;;;5108717;28;20082;-75
2024/01/25 11:57:05;;;;;;;41.53;14.88;;;;;;;;;;5105720;28;20584;-75
2024/01/25 11:59:30;;;;;;;52.45;16.67;;;;;;;;;;5105601;28;20042;-75
2024/01/25 12:01:56;;;;;;;53.22;16.98;;;;;;;;;;5106183;28;20370;-75
2024/01/25 12:04:21;;;;;;;44.45;16.20;;;;;;;;;;5106175;28;20020;-75
2024/01/25 12:06:47;;;;;;;42.80;15.32;;;;;;;;;;5104960;28;20051;-75
2024/01/25 12:09:15;;;;;;;43.65;16.10;;;;;;;;;;5108872;28;20046;-75
2024/01/25 12:11:41;;;;;;;36.70;15.00;;;;;;;;;;5103653;28;20027;-75
2024/01/25 12:14:07;;;;;;;45.45;15.30;;;;;;;;;;5105295;28;20409;-75
2024/01/25 12:16:32;;;;;;;40.20;17.17;;;;;;;;;;5103321;28;20020;-75
2024/01/25 12:18:58;;;;;;;39.03;15.70;;;;;;;;;;5104875;28;20102;-75
2024/01/25 12:21:23;;;;;;;39.03;15.48;;;;;;;;;;5103633;28;20106;-75
2024/01/25 12:23:48;;;;;;;44.25;16.48;;;;;;;;;;5105159;28;20091;-75
2024/01/25 12:26:16;;;;;;;37.85;15.23;;;;;;;;;;5104839;28;20478;-75
2024/01/25 12:28:41;;;;;;;37.72;15.00;;;;;;;;;;5103378;28;20020;-75
2024/01/25 12:31:07;;;;;;;39.72;15.38;;;;;;;;;;5105370;28;20031;-75
2024/01/25 12:33:33;;;;;;;39.92;14.90;;;;;;;;;;5104809;28;20141;-75
2024/01/25 12:35:58;;;;;;;41.13;15.85;;;;;;;;;;5104766;28;20140;-75
2024/01/25 12:38:27;;;;;;;34.95;14.60;;;;;;;;;;5105596;28;20096;-75
2024/01/25 12:40:52;;;;;;;36.60;15.13;;;;;;;;;;5103321;28;20043;-75
2024/01/25 12:43:23;;;;;;;39.97;14.85;;;;;;;;;;5111409;28;20455;-75
2024/01/25 12:45:49;;;;;;;39.20;14.38;;;;;;;;;;5105778;28;20430;-75
2024/01/25 12:48:14;;;;;;;33.08;13.55;;;;;;;;;;5110246;28;20102;-74
2024/01/25 12:50:41;;;;;;;45.42;16.05;;;;;;;;;;5105958;28;20032;-75
2024/01/25 12:53:06;;;;;;;39.28;15.10;;;;;;;;;;5110280;28;20048;-74
2024/01/25 12:55:31;;;;;;;37.40;15.73;;;;;;;;;;5108866;28;20024;-74
2024/01/25 12:57:58;;;;;;;47.72;18.00;;;;;;;;;;5101800;28;20466;-74
2024/01/25 13:00:23;;;;;;;41.83;17.55;;;;;;;;;;5107924;28;20439;-74
2024/01/25 13:02:48;;;;;;;43.40;17.70;;;;;;;;;;5103530;28;20062;-74
2024/01/25 13:05:14;;;;;;;45.75;18.05;;;;;;;;;;5111145;28;20265;-75
2024/01/25 13:07:40;;;;;;;43.65;16.60;;;;;;;;;;5104309;28;20020;-77
2024/01/25 13:10:06;;;;;;;42.58;16.40;;;;;;;;;;5103805;28;20035;-75
2024/01/25 13:12:31;;;;;;;42.90;16.27;;;;;;;;;;5106213;28;20038;-74
2024/01/25 13:14:56;;;;;;;39.13;17.37;;;;;;;;;;5106089;28;20068;-75
2024/01/25 13:17:23;;;;;;;47.47;16.70;;;;;;;;;;5107141;28;20276;-74
2024/01/25 13:19:49;;;;;;;46.80;17.35;;;;;;;;;;5108840;28;20756;-75
2024/01/25 13:22:14;;;;;;;42.87;18.37;;;;;;;;;;5104011;28;20027;-74
2024/01/25 13:24:39;;;;;;;44.73;17.43;;;;;;;;;;5104580;28;20289;-74
2024/01/25 13:27:05;;;;;;;45.37;17.30;;;;;;;;;;5108530;28;20269;-75
2024/01/25 13:29:30;;;;;;;41.05;16.95;;;;;;;;;;5102595;28;20722;-74
2024/01/25 13:31:55;;;;;;;33.70;16.40;;;;;;;;;;5105647;28;20039;-74
2024/01/25 13:34:20;;;;;;;39.10;17.33;;;;;;;;;;5102324;28;20030;-74
2024/01/25 13:36:45;;;;;;;42.23;16.27;;;;;;;;;;5102791;28;20051;-74
2024/01/25 13:39:10;;;;;;;42.33;18.20;;;;;;;;;;5105120;28;20020;-74
2024/01/25 13:41:38;;;;;;;39.63;16.70;;;;;;;;;;5104511;28;20028;-75
2024/01/25 13:44:03;;;;;;;41.92;18.40;;;;;;;;;;5108728;28;20319;-75
2024/01/25 13:46:28;;;;;;;47.93;17.80;;;;;;;;;;5104616;28;20024;-74
2024/01/25 13:48:53;;;;;;;41.17;18.40;;;;;;;;;;5103687;28;20752;-74
2024/01/25 13:51:18;;;;;;;46.30;18.27;;;;;;;;;;5105221;28;20028;-74
2024/01/25 13:53:44;;;;;;;41.33;17.80;;;;;;;;;;5102931;28;20022;-74
2024/01/25 13:56:09;;;;;;;50.70;19.63;;;;;;;;;;5107706;28;20346;-74
2024/01/25 13:58:34;;;;;;;47.47;20.00;;;;;;;;;;5103431;28;20031;-74
2024/01/25 14:00:59;;;;;;;49.87;19.77;;;;;;;;;;5104013;28;20088;-74
2024/01/25 14:03:25;;;;;;;52.20;19.30;;;;;;;;;;5103371;28;20028;-74
2024/01/25 14:05:50;;;;;;;52.53;20.50;;;;;;;;;;5105748;28;20103;-74
2024/01/25 14:08:16;;;;;;;53.27;20.43;;;;;;;;;;5104312;28;20444;-74
2024/01/25 14:10:41;;;;;;;45.10;18.88;;;;;;;;;;5098209;28;20024;-74
2024/01/25 14:13:07;;;;;;;51.38;19.05;;;;;;;;;;5101917;28;20115;-74